sensor_id;sensor_type;location;lat;lon;timestamp;pressure;altitude;pressure_sealevel;temperature;humidity
75424;BME280;64005;55.160;36.002;2023-04-24T00:02:22;99027.59;;;5.78;54.58
75424;BME280;64005;55.160;36.002;2023-04-24T00:04:50;99016.72;;;5.68;55.73
75424;BME280;64005;55.160;36.002;2023-04-24T00:07:17;99015.47;;;5.60;55.34
75424;BME280;64005;55.160;36.002;2023-04-24T00:09:46;99020.25;;;5.54;55.26
75424;BME280;64005;55.160;36.002;2023-04-24T00:12:13;99020.94;;;5.46;56.29
75424;BME280;64005;55.160;36.002;2023-04-24T00:14:41;99010.41;;;5.35;56.09
75424;BME280;64005;55.160;36.002;2023-04-24T00:17:08;99030.91;;;5.29;56.19
75424;BME280;64005;55.160;36.002;2023-04-24T00:19:38;98998.69;;;5.10;56.87
75424;BME280;64005;55.160;36.002;2023-04-24T00:22:05;99028.69;;;5.12;56.48
75424;BME280;64005;55.160;36.002;2023-04-24T00:24:33;99022.13;;;5.08;56.99
75424;BME280;64005;55.160;36.002;2023-04-24T00:27:00;99018.34;;;5.04;56.76
75424;BME280;64005;55.160;36.002;2023-04-24T00:29:28;99009.94;;;4.95;57.92
75424;BME280;64005;55.160;36.002;2023-04-24T00:31:56;99018.00;;;4.92;57.96
75424;BME280;64005;55.160;36.002;2023-04-24T00:34:23;99016.94;;;4.88;58.44
75424;BME280;64005;55.160;36.002;2023-04-24T00:36:52;99015.63;;;4.85;58.56
75424;BME280;64005;55.160;36.002;2023-04-24T00:39:20;99014.25;;;4.83;57.79
75424;BME280;64005;55.160;36.002;2023-04-24T00:41:48;98957.66;;;4.34;58.78
75424;BME280;64005;55.160;36.002;2023-04-24T00:44:16;99014.94;;;4.74;58.24
75424;BME280;64005;55.160;36.002;2023-04-24T00:46:44;99015.31;;;4.68;58.66
75424;BME280;64005;55.160;36.002;2023-04-24T00:49:13;99019.16;;;4.67;58.93
75424;BME280;64005;55.160;36.002;2023-04-24T00:51:41;99024.19;;;4.65;58.70
75424;BME280;64005;55.160;36.002;2023-04-24T00:54:12;99017.69;;;4.56;59.75
75424;BME280;64005;55.160;36.002;2023-04-24T00:56:41;99025.19;;;4.50;59.20
75424;BME280;64005;55.160;36.002;2023-04-24T00:59:09;99018.97;;;4.39;59.47
75424;BME280;64005;55.160;36.002;2023-04-24T01:01:38;98994.78;;;4.18;59.92
75424;BME280;64005;55.160;36.002;2023-04-24T01:04:09;99017.72;;;4.32;60.12
75424;BME280;64005;55.160;36.002;2023-04-24T01:06:38;99005.19;;;4.21;59.80
75424;BME280;64005;55.160;36.002;2023-04-24T01:09:07;99015.09;;;4.22;59.89
75424;BME280;64005;55.160;36.002;2023-04-24T01:11:36;99018.50;;;4.14;60.48
75424;BME280;64005;55.160;36.002;2023-04-24T01:14:04;99012.75;;;4.10;60.62
75424;BME280;64005;55.160;36.002;2023-04-24T01:16:32;99017.72;;;4.08;60.78
75424;BME280;64005;55.160;36.002;2023-04-24T01:18:59;99015.34;;;4.02;60.92
75424;BME280;64005;55.160;36.002;2023-04-24T01:21:29;99019.47;;;3.99;60.66
75424;BME280;64005;55.160;36.002;2023-04-24T01:23:59;99017.34;;;3.96;60.79
75424;BME280;64005;55.160;36.002;2023-04-24T01:26:26;99023.13;;;3.94;61.04
75424;BME280;64005;55.160;36.002;2023-04-24T01:28:54;99023.66;;;3.96;60.90
75424;BME280;64005;55.160;36.002;2023-04-24T01:31:22;99022.28;;;3.94;61.61
75424;BME280;64005;55.160;36.002;2023-04-24T01:33:49;99021.47;;;3.93;61.43
75424;BME280;64005;55.160;36.002;2023-04-24T01:36:19;99004.75;;;3.90;61.50
75424;BME280;64005;55.160;36.002;2023-04-24T01:38:47;99012.94;;;3.95;61.49
75424;BME280;64005;55.160;36.002;2023-04-24T01:41:16;99014.56;;;3.96;61.65
75424;BME280;64005;55.160;36.002;2023-04-24T01:43:43;99019.78;;;3.97;61.35
75424;BME280;64005;55.160;36.002;2023-04-24T01:46:11;99014.78;;;3.99;62.14
75424;BME280;64005;55.160;36.002;2023-04-24T01:48:38;99019.19;;;4.00;62.09
75424;BME280;64005;55.160;36.002;2023-04-24T01:51:06;99020.03;;;4.01;61.89
75424;BME280;64005;55.160;36.002;2023-04-24T01:53:34;99007.91;;;4.02;61.97
75424;BME280;64005;55.160;36.002;2023-04-24T01:56:01;99014.78;;;3.99;62.07
75424;BME280;64005;55.160;36.002;2023-04-24T01:58:31;99009.06;;;3.96;61.95
75424;BME280;64005;55.160;36.002;2023-04-24T02:01:00;99008.25;;;3.95;62.00
75424;BME280;64005;55.160;36.002;2023-04-24T02:03:27;99016.50;;;3.95;62.31
75424;BME280;64005;55.160;36.002;2023-04-24T02:05:55;99004.47;;;3.91;61.92
75424;BME280;64005;55.160;36.002;2023-04-24T02:08:22;99010.47;;;3.93;62.39
75424;BME280;64005;55.160;36.002;2023-04-24T02:10:50;99008.81;;;3.92;62.22
75424;BME280;64005;55.160;36.002;2023-04-24T02:13:17;99011.56;;;3.92;62.55
75424;BME280;64005;55.160;36.002;2023-04-24T02:15:47;99013.81;;;3.90;62.27
75424;BME280;64005;55.160;36.002;2023-04-24T02:18:14;98998.41;;;3.89;62.48
75424;BME280;64005;55.160;36.002;2023-04-24T02:20:42;99010.47;;;3.93;62.35
75424;BME280;64005;55.160;36.002;2023-04-24T02:23:10;99014.03;;;3.94;62.86
75424;BME280;64005;55.160;36.002;2023-04-24T02:25:39;99017.03;;;3.97;62.74
75424;BME280;64005;55.160;36.002;2023-04-24T02:28:06;99017.25;;;4.01;62.35
75424;BME280;64005;55.160;36.002;2023-04-24T02:30:34;99012.28;;;4.03;62.47
75424;BME280;64005;55.160;36.002;2023-04-24T02:33:03;99016.91;;;4.08;62.59
75424;BME280;64005;55.160;36.002;2023-04-24T02:35:31;99026.25;;;4.12;62.36
75424;BME280;64005;55.160;36.002;2023-04-24T02:37:58;99022.06;;;4.14;62.68
75424;BME280;64005;55.160;36.002;2023-04-24T02:40:25;99024.19;;;4.22;62.64
75424;BME280;64005;55.160;36.002;2023-04-24T02:42:53;99025.19;;;4.31;62.64
75424;BME280;64005;55.160;36.002;2023-04-24T02:45:20;99023.66;;;4.39;62.53
75424;BME280;64005;55.160;36.002;2023-04-24T02:47:48;99030.25;;;4.43;62.05
75424;BME280;64005;55.160;36.002;2023-04-24T02:50:17;99031.56;;;4.46;62.82
75424;BME280;64005;55.160;36.002;2023-04-24T02:52:45;99042.53;;;4.51;62.70
75424;BME280;64005;55.160;36.002;2023-04-24T02:55:12;99038.31;;;4.58;61.98
75424;BME280;64005;55.160;36.002;2023-04-24T02:57:40;99040.38;;;4.66;62.47
75424;BME280;64005;55.160;36.002;2023-04-24T03:00:08;99034.75;;;4.76;62.13
75424;BME280;64005;55.160;36.002;2023-04-24T03:02:37;99036.97;;;4.93;61.54
75424;BME280;64005;55.160;36.002;2023-04-24T03:05:05;99029.69;;;5.02;61.27
75424;BME280;64005;55.160;36.002;2023-04-24T03:07:34;99022.13;;;5.08;61.55
75424;BME280;64005;55.160;36.002;2023-04-24T03:10:03;99039.47;;;5.27;62.37
75424;BME280;64005;55.160;36.002;2023-04-24T03:12:31;99035.50;;;5.33;61.21
75424;BME280;64005;55.160;36.002;2023-04-24T03:14:59;99028.59;;;5.36;62.03
75424;BME280;64005;55.160;36.002;2023-04-24T03:17:26;99042.56;;;5.58;61.55
75424;BME280;64005;55.160;36.002;2023-04-24T03:19:54;99046.28;;;5.81;61.51
75424;BME280;64005;55.160;36.002;2023-04-24T03:22:21;99047.69;;;5.97;61.90
75424;BME280;64005;55.160;36.002;2023-04-24T03:24:50;99048.81;;;6.10;61.26
75424;BME280;64005;55.160;36.002;2023-04-24T03:27:18;99054.94;;;6.34;61.65
75424;BME280;64005;55.160;36.002;2023-04-24T03:29:45;99049.81;;;6.55;60.76
75424;BME280;64005;55.160;36.002;2023-04-24T03:32:13;99052.34;;;6.65;61.32
75424;BME280;64005;55.160;36.002;2023-04-24T03:34:40;99040.69;;;6.68;61.38
75424;BME280;64005;55.160;36.002;2023-04-24T03:37:08;99049.97;;;6.86;61.31
75424;BME280;64005;55.160;36.002;2023-04-24T03:39:35;99057.41;;;6.99;60.90
75424;BME280;64005;55.160;36.002;2023-04-24T03:42:04;99050.94;;;7.17;60.79
75424;BME280;64005;55.160;36.002;2023-04-24T03:44:32;99044.53;;;7.30;60.97
75424;BME280;64005;55.160;36.002;2023-04-24T03:46:59;99053.59;;;7.44;60.24
75424;BME280;64005;55.160;36.002;2023-04-24T03:49:27;99060.63;;;7.50;60.45
75424;BME280;64005;55.160;36.002;2023-04-24T03:51:54;99058.16;;;7.71;60.75
75424;BME280;64005;55.160;36.002;2023-04-24T03:54:22;99066.75;;;7.92;60.45
75424;BME280;64005;55.160;36.002;2023-04-24T03:56:49;99068.44;;;8.02;60.53
75424;BME280;64005;55.160;36.002;2023-04-24T03:59:18;99062.25;;;8.05;60.49
75424;BME280;64005;55.160;36.002;2023-04-24T04:01:46;99069.19;;;8.16;60.53
75424;BME280;64005;55.160;36.002;2023-04-24T04:04:13;99076.38;;;8.25;60.12
75424;BME280;64005;55.160;36.002;2023-04-24T04:06:41;99077.44;;;8.38;60.06
75424;BME280;64005;55.160;36.002;2023-04-24T04:09:10;99079.63;;;8.50;60.03
75424;BME280;64005;55.160;36.002;2023-04-24T04:11:37;99079.97;;;8.57;59.73
75424;BME280;64005;55.160;36.002;2023-04-24T04:14:04;99088.97;;;8.71;59.79
75424;BME280;64005;55.160;36.002;2023-04-24T04:16:34;99083.44;;;8.80;59.86
75424;BME280;64005;55.160;36.002;2023-04-24T04:19:02;99081.56;;;8.97;59.88
75424;BME280;64005;55.160;36.002;2023-04-24T04:21:30;99088.75;;;9.15;59.68
75424;BME280;64005;55.160;36.002;2023-04-24T04:23:58;99079.94;;;9.22;59.78
75424;BME280;64005;55.160;36.002;2023-04-24T04:26:25;99085.97;;;9.33;59.77
75424;BME280;64005;55.160;36.002;2023-04-24T04:28:53;99082.06;;;9.51;59.44
75424;BME280;64005;55.160;36.002;2023-04-24T04:31:20;99080.44;;;9.76;59.31
75424;BME280;64005;55.160;36.002;2023-04-24T04:33:50;99082.84;;;10.03;58.92
75424;BME280;64005;55.160;36.002;2023-04-24T04:36:18;99087.66;;;10.32;58.43
75424;BME280;64005;55.160;36.002;2023-04-24T04:38:46;99086.41;;;10.59;58.35
75424;BME280;64005;55.160;36.002;2023-04-24T04:41:14;99028.06;;;10.50;57.21
75424;BME280;64005;55.160;36.002;2023-04-24T04:43:42;99036.06;;;10.81;56.89
75424;BME280;64005;55.160;36.002;2023-04-24T04:48:46;98963.91;;;10.76;56.49
75424;BME280;64005;55.160;36.002;2023-04-24T04:53:50;99100.84;;;11.82;55.77
75424;BME280;64005;55.160;36.002;2023-04-24T04:56:18;98957.13;;;11.06;55.25
75424;BME280;64005;55.160;36.002;2023-04-24T05:06:38;98974.34;;;11.74;52.19
75424;BME280;64005;55.160;36.002;2023-04-24T05:09:08;98969.25;;;11.76;51.39
75424;BME280;64005;55.160;36.002;2023-04-24T05:14:11;98995.81;;;12.31;50.18
75424;BME280;64005;55.160;36.002;2023-04-24T05:16:40;99108.41;;;13.20;49.32
75424;BME280;64005;55.160;36.002;2023-04-24T05:19:07;99106.16;;;13.38;49.10
75424;BME280;64005;55.160;36.002;2023-04-24T05:21:35;98982.88;;;12.87;48.03
75424;BME280;64005;55.160;36.002;2023-04-24T05:24:04;99102.91;;;14.04;47.08
75424;BME280;64005;55.160;36.002;2023-04-24T05:26:33;99104.28;;;14.38;46.16
75424;BME280;64005;55.160;36.002;2023-04-24T05:39:50;99111.03;;;15.31;43.53
75424;BME280;64005;55.160;36.002;2023-04-24T05:45:01;99109.91;;;15.51;42.26
75424;BME280;64005;55.160;36.002;2023-04-24T05:53:24;98975.84;;;14.83;41.97
75424;BME280;64005;55.160;36.002;2023-04-24T05:55:53;99093.88;;;15.67;41.64
75424;BME280;64005;55.160;36.002;2023-04-24T06:01:13;98991.84;;;15.37;40.77
75424;BME280;64005;55.160;36.002;2023-04-24T06:18:23;99089.88;;;16.26;40.02
75424;BME280;64005;55.160;36.002;2023-04-24T06:26:28;99031.84;;;16.11;39.63
75424;BME280;64005;55.160;36.002;2023-04-24T06:41:16;99125.78;;;17.27;38.54
75424;BME280;64005;55.160;36.002;2023-04-24T06:51:49;99120.41;;;17.68;37.20
75424;BME280;64005;55.160;36.002;2023-04-24T07:06:06;99133.56;;;18.23;35.18
75424;BME280;64005;55.160;36.002;2023-04-24T07:32:07;99121.75;;;19.29;31.78
75424;BME280;64005;55.160;36.002;2023-04-24T07:34:35;99013.66;;;18.59;31.35
75424;BME280;64005;55.160;36.002;2023-04-24T07:37:03;99116.97;;;19.36;30.45
75424;BME280;64005;55.160;36.002;2023-04-24T07:50:13;98995.47;;;19.04;28.88
75424;BME280;64005;55.160;36.002;2023-04-24T10:24:54;99013.50;;;22.76;22.01
75424;BME280;64005;55.160;36.002;2023-04-24T10:58:40;98976.03;;;22.50;20.97
75424;BME280;64005;55.160;36.002;2023-04-24T12:10:37;98918.50;;;22.94;20.06
75424;BME280;64005;55.160;36.002;2023-04-24T13:00:59;98818.44;;;20.48;22.34
75424;BME280;64005;55.160;36.002;2023-04-24T13:30:37;98866.06;;;22.69;20.77
75424;BME280;64005;55.160;36.002;2023-04-24T13:38:47;98858.59;;;22.89;20.22
75424;BME280;64005;55.160;36.002;2023-04-24T13:41:15;98849.41;;;22.78;20.24
75424;BME280;64005;55.160;36.002;2023-04-24T13:49:11;98858.38;;;22.69;20.33
75424;BME280;64005;55.160;36.002;2023-04-24T13:52:09;98862.06;;;22.66;20.30
75424;BME280;64005;55.160;36.002;2023-04-24T14:23:06;98842.56;;;22.72;20.32
75424;BME280;64005;55.160;36.002;2023-04-24T14:40:00;98833.03;;;21.48;21.16
75424;BME280;64005;55.160;36.002;2023-04-24T14:53:17;98823.69;;;20.50;22.42
75424;BME280;64005;55.160;36.002;2023-04-24T14:55:46;98816.03;;;20.50;22.37
75424;BME280;64005;55.160;36.002;2023-04-24T15:18:57;98698.47;;;18.47;23.61
75424;BME280;64005;55.160;36.002;2023-04-24T15:40:56;98689.53;;;17.66;24.68
75424;BME280;64005;55.160;36.002;2023-04-24T15:46:00;98798.09;;;18.25;25.19
75424;BME280;64005;55.160;36.002;2023-04-24T15:51:03;98779.19;;;18.25;24.69
75424;BME280;64005;55.160;36.002;2023-04-24T15:53:31;98793.91;;;18.63;24.72
75424;BME280;64005;55.160;36.002;2023-04-24T16:30:30;98791.69;;;19.00;25.30
75424;BME280;64005;55.160;36.002;2023-04-24T16:33:12;98796.28;;;18.54;25.70
75424;BME280;64005;55.160;36.002;2023-04-24T16:35:40;98776.34;;;18.15;26.63
75424;BME280;64005;55.160;36.002;2023-04-24T16:40:44;98789.97;;;17.62;27.13
75424;BME280;64005;55.160;36.002;2023-04-24T16:43:14;98792.13;;;17.38;27.77
75424;BME280;64005;55.160;36.002;2023-04-24T16:49:00;98786.22;;;16.77;28.58
75424;BME280;64005;55.160;36.002;2023-04-24T16:51:28;98787.16;;;16.58;29.13
75424;BME280;64005;55.160;36.002;2023-04-24T16:53:56;98798.91;;;16.37;29.66
75424;BME280;64005;55.160;36.002;2023-04-24T16:56:24;98801.00;;;16.17;30.33
75424;BME280;64005;55.160;36.002;2023-04-24T16:58:51;98805.91;;;15.98;30.24
75424;BME280;64005;55.160;36.002;2023-04-24T17:01:19;98790.44;;;15.81;30.74
75424;BME280;64005;55.160;36.002;2023-04-24T17:03:46;98797.69;;;15.59;31.40
75424;BME280;64005;55.160;36.002;2023-04-24T17:06:15;98801.81;;;15.46;31.73
75424;BME280;64005;55.160;36.002;2023-04-24T17:08:43;98789.50;;;15.28;32.37
75424;BME280;64005;55.160;36.002;2023-04-24T17:11:10;98789.44;;;15.05;32.93
75424;BME280;64005;55.160;36.002;2023-04-24T17:13:38;98798.84;;;14.93;33.35
75424;BME280;64005;55.160;36.002;2023-04-24T17:16:05;98796.47;;;14.76;33.56
75424;BME280;64005;55.160;36.002;2023-04-24T17:18:33;98798.53;;;14.60;33.92
75424;BME280;64005;55.160;36.002;2023-04-24T17:21:00;98803.78;;;14.42;34.20
75424;BME280;64005;55.160;36.002;2023-04-24T17:23:29;98805.31;;;14.24;34.40
75424;BME280;64005;55.160;36.002;2023-04-24T17:25:57;98804.63;;;14.11;34.49
75424;BME280;64005;55.160;36.002;2023-04-24T17:28:26;98799.50;;;13.98;34.93
75424;BME280;64005;55.160;36.002;2023-04-24T17:30:55;98803.69;;;13.88;35.08
75424;BME280;64005;55.160;36.002;2023-04-24T17:33:23;98808.00;;;13.70;35.67
75424;BME280;64005;55.160;36.002;2023-04-24T17:35:51;98810.47;;;13.56;36.20
75424;BME280;64005;55.160;36.002;2023-04-24T17:38:19;98810.09;;;13.41;36.76
75424;BME280;64005;55.160;36.002;2023-04-24T17:40:48;98819.34;;;13.30;36.87
75424;BME280;64005;55.160;36.002;2023-04-24T17:43:18;98820.72;;;13.20;36.66
75424;BME280;64005;55.160;36.002;2023-04-24T17:45:46;98822.50;;;13.12;36.95
75424;BME280;64005;55.160;36.002;2023-04-24T17:48:14;98811.91;;;13.06;36.87
75424;BME280;64005;55.160;36.002;2023-04-24T17:50:42;98824.16;;;13.01;37.73
75424;BME280;64005;55.160;36.002;2023-04-24T17:53:11;98821.50;;;12.93;37.87
75424;BME280;64005;55.160;36.002;2023-04-24T17:55:38;98826.53;;;12.87;38.16
75424;BME280;64005;55.160;36.002;2023-04-24T17:58:10;98819.13;;;12.79;38.62
75424;BME280;64005;55.160;36.002;2023-04-24T18:00:38;98825.78;;;12.74;38.49
75424;BME280;64005;55.160;36.002;2023-04-24T18:03:07;98820.00;;;12.67;38.50
75424;BME280;64005;55.160;36.002;2023-04-24T18:05:37;98795.75;;;12.44;38.88
75424;BME280;64005;55.160;36.002;2023-04-24T18:08:05;98825.97;;;12.54;39.17
75424;BME280;64005;55.160;36.002;2023-04-24T18:10:33;98820.66;;;12.49;39.48
75424;BME280;64005;55.160;36.002;2023-04-24T18:13:02;98826.81;;;12.42;39.72
75424;BME280;64005;55.160;36.002;2023-04-24T18:15:32;98823.56;;;12.40;39.73
75424;BME280;64005;55.160;36.002;2023-04-24T18:18:01;98826.22;;;12.37;39.77
75424;BME280;64005;55.160;36.002;2023-04-24T18:20:28;98824.25;;;12.37;39.71
75424;BME280;64005;55.160;36.002;2023-04-24T18:22:56;98824.72;;;12.39;39.86
75424;BME280;64005;55.160;36.002;2023-04-24T18:25:24;98820.56;;;12.33;40.28
75424;BME280;64005;55.160;36.002;2023-04-24T18:27:52;98830.56;;;12.34;40.55
75424;BME280;64005;55.160;36.002;2023-04-24T18:30:21;98823.34;;;12.33;40.92
75424;BME280;64005;55.160;36.002;2023-04-24T18:32:51;98820.09;;;12.31;40.66
75424;BME280;64005;55.160;36.002;2023-04-24T18:35:20;98837.75;;;12.35;40.78
75424;BME280;64005;55.160;36.002;2023-04-24T18:37:48;98833.34;;;12.34;41.36
75424;BME280;64005;55.160;36.002;2023-04-24T18:40:16;98826.22;;;12.37;40.90
75424;BME280;64005;55.160;36.002;2023-04-24T18:42:43;98821.13;;;12.39;40.77
75424;BME280;64005;55.160;36.002;2023-04-24T18:45:11;98815.88;;;12.37;40.87
75424;BME280;64005;55.160;36.002;2023-04-24T18:47:39;98824.84;;;12.43;41.03
75424;BME280;64005;55.160;36.002;2023-04-24T18:50:09;98829.69;;;12.46;40.77
75424;BME280;64005;55.160;36.002;2023-04-24T18:52:37;98829.09;;;12.52;41.34
75424;BME280;64005;55.160;36.002;2023-04-24T18:55:05;98831.63;;;12.57;40.93
75424;BME280;64005;55.160;36.002;2023-04-24T18:57:34;98832.56;;;12.61;41.04
75424;BME280;64005;55.160;36.002;2023-04-24T19:00:02;98830.69;;;12.65;41.12
75424;BME280;64005;55.160;36.002;2023-04-24T19:02:34;98827.56;;;12.67;41.50
75424;BME280;64005;55.160;36.002;2023-04-24T19:05:01;98829.53;;;12.66;41.70
75424;BME280;64005;55.160;36.002;2023-04-24T19:07:34;98822.44;;;12.69;41.77
75424;BME280;64005;55.160;36.002;2023-04-24T19:10:01;98828.47;;;12.71;41.79
75424;BME280;64005;55.160;36.002;2023-04-24T19:12:30;98826.03;;;12.69;41.47
75424;BME280;64005;55.160;36.002;2023-04-24T19:14:58;98813.94;;;12.65;41.44
75424;BME280;64005;55.160;36.002;2023-04-24T19:17:26;98834.97;;;12.75;41.60
75424;BME280;64005;55.160;36.002;2023-04-24T19:19:54;98827.03;;;12.77;41.33
75424;BME280;64005;55.160;36.002;2023-04-24T19:22:22;98823.44;;;12.77;41.54
75424;BME280;64005;55.160;36.002;2023-04-24T19:24:51;98818.22;;;12.75;41.91
75424;BME280;64005;55.160;36.002;2023-04-24T19:27:19;98818.56;;;12.73;42.27
75424;BME280;64005;55.160;36.002;2023-04-24T19:29:47;98818.91;;;12.72;42.15
75424;BME280;64005;55.160;36.002;2023-04-24T19:32:15;98822.88;;;12.71;42.42
75424;BME280;64005;55.160;36.002;2023-04-24T19:34:42;98826.81;;;12.70;42.25
75424;BME280;64005;55.160;36.002;2023-04-24T19:37:10;98822.53;;;12.72;42.58
75424;BME280;64005;55.160;36.002;2023-04-24T19:39:38;98819.53;;;12.65;41.94
75424;BME280;64005;55.160;36.002;2023-04-24T19:42:07;98824.16;;;12.73;41.95
75424;BME280;64005;55.160;36.002;2023-04-24T19:44:34;98817.41;;;12.74;41.75
75424;BME280;64005;55.160;36.002;2023-04-24T19:47:02;98817.97;;;12.80;41.60
75424;BME280;64005;55.160;36.002;2023-04-24T19:49:30;98824.44;;;12.84;42.16
75424;BME280;64005;55.160;36.002;2023-04-24T19:51:57;98826.44;;;12.84;41.94
75424;BME280;64005;55.160;36.002;2023-04-24T19:54:25;98819.59;;;12.81;41.99
75424;BME280;64005;55.160;36.002;2023-04-24T19:56:52;98819.47;;;12.78;42.39
75424;BME280;64005;55.160;36.002;2023-04-24T19:59:22;98819.03;;;12.76;42.38
75424;BME280;64005;55.160;36.002;2023-04-24T20:01:49;98816.94;;;12.72;42.13
75424;BME280;64005;55.160;36.002;2023-04-24T20:04:18;98823.34;;;12.73;42.25
75424;BME280;64005;55.160;36.002;2023-04-24T20:06:48;98813.34;;;12.72;42.60
75424;BME280;64005;55.160;36.002;2023-04-24T20:09:15;98812.09;;;12.69;42.54
75424;BME280;64005;55.160;36.002;2023-04-24T20:11:42;98811.72;;;12.71;42.43
75424;BME280;64005;55.160;36.002;2023-04-24T20:14:11;98810.09;;;12.70;42.37
75424;BME280;64005;55.160;36.002;2023-04-24T20:16:40;98812.09;;;12.69;42.26
75424;BME280;64005;55.160;36.002;2023-04-24T20:19:08;98815.22;;;12.68;42.20
75424;BME280;64005;55.160;36.002;2023-04-24T20:21:36;98813.59;;;12.67;42.69
75424;BME280;64005;55.160;36.002;2023-04-24T20:24:04;98821.50;;;12.65;42.68
75424;BME280;64005;55.160;36.002;2023-04-24T20:26:33;98805.63;;;12.53;42.25
75424;BME280;64005;55.160;36.002;2023-04-24T20:29:02;98827.81;;;12.62;42.13
75424;BME280;64005;55.160;36.002;2023-04-24T20:31:30;98834.63;;;12.64;41.91
75424;BME280;64005;55.160;36.002;2023-04-24T20:33:59;98822.78;;;12.67;42.19
75424;BME280;64005;55.160;36.002;2023-04-24T20:36:27;98824.03;;;12.70;41.96
75424;BME280;64005;55.160;36.002;2023-04-24T20:38:54;98734.63;;;12.11;41.65
75424;BME280;64005;55.160;36.002;2023-04-24T20:41:24;98827.28;;;12.72;41.68
75424;BME280;64005;55.160;36.002;2023-04-24T20:43:52;98812.53;;;12.71;41.43
75424;BME280;64005;55.160;36.002;2023-04-24T20:46:20;98821.38;;;12.73;41.23
75424;BME280;64005;55.160;36.002;2023-04-24T20:48:48;98821.03;;;12.75;41.52
75424;BME280;64005;55.160;36.002;2023-04-24T20:51:17;98823.81;;;12.75;41.18
75424;BME280;64005;55.160;36.002;2023-04-24T20:53:46;98815.66;;;12.70;41.34
75424;BME280;64005;55.160;36.002;2023-04-24T20:56:14;98830.22;;;12.76;41.68
75424;BME280;64005;55.160;36.002;2023-04-24T20:58:44;98827.75;;;12.74;41.44
75424;BME280;64005;55.160;36.002;2023-04-24T21:01:12;98827.41;;;12.76;41.24
75424;BME280;64005;55.160;36.002;2023-04-24T21:03:39;98816.03;;;12.68;41.42
75424;BME280;64005;55.160;36.002;2023-04-24T21:06:08;98824.50;;;12.72;41.35
75424;BME280;64005;55.160;36.002;2023-04-24T21:08:38;98826.03;;;12.69;41.17
75424;BME280;64005;55.160;36.002;2023-04-24T21:11:05;98819.66;;;12.69;41.79
75424;BME280;64005;55.160;36.002;2023-04-24T21:13:33;98820.00;;;12.67;41.62
75424;BME280;64005;55.160;36.002;2023-04-24T21:16:00;98816.03;;;12.68;41.83
75424;BME280;64005;55.160;36.002;2023-04-24T21:18:28;98821.63;;;12.68;41.57
75424;BME280;64005;55.160;36.002;2023-04-24T21:20:55;98820.91;;;12.71;41.57
75424;BME280;64005;55.160;36.002;2023-04-24T21:23:23;98826.59;;;12.75;41.10
75424;BME280;64005;55.160;36.002;2023-04-24T21:25:52;98825.44;;;12.76;41.44
75424;BME280;64005;55.160;36.002;2023-04-24T21:28:20;98819.03;;;12.76;41.18
75424;BME280;64005;55.160;36.002;2023-04-24T21:30:49;98822.28;;;12.78;41.29
75424;BME280;64005;55.160;36.002;2023-04-24T21:33:17;98825.88;;;12.78;41.64
75424;BME280;64005;55.160;36.002;2023-04-24T21:35:44;98822.28;;;12.78;41.53
75424;BME280;64005;55.160;36.002;2023-04-24T21:38:12;98818.66;;;12.77;41.48
75424;BME280;64005;55.160;36.002;2023-04-24T21:43:10;98812.66;;;12.75;41.57
75424;BME280;64005;55.160;36.002;2023-04-24T21:45:37;98809.66;;;12.68;41.66
75424;BME280;64005;55.160;36.002;2023-04-24T21:48:05;98819.38;;;12.74;42.11
75424;BME280;64005;55.160;36.002;2023-04-24T21:50:32;98818.56;;;12.73;41.74
75424;BME280;64005;55.160;36.002;2023-04-24T21:53:00;98814.41;;;12.67;42.07
75424;BME280;64005;55.160;36.002;2023-04-24T21:55:27;98810.00;;;12.66;42.56
75424;BME280;64005;55.160;36.002;2023-04-24T21:57:55;98817.47;;;12.62;42.58
75424;BME280;64005;55.160;36.002;2023-04-24T22:00:24;98803.66;;;12.54;42.77
75424;BME280;64005;55.160;36.002;2023-04-24T22:02:52;98807.59;;;12.53;42.72
75424;BME280;64005;55.160;36.002;2023-04-24T22:05:19;98811.13;;;12.50;42.58
75424;BME280;64005;55.160;36.002;2023-04-24T22:07:47;98802.16;;;12.44;43.20
75424;BME280;64005;55.160;36.002;2023-04-24T22:10:15;98809.63;;;12.40;43.50
75424;BME280;64005;55.160;36.002;2023-04-24T22:12:43;98808.59;;;12.32;43.60
75424;BME280;64005;55.160;36.002;2023-04-24T22:15:10;98791.53;;;12.22;43.05
75424;BME280;64005;55.160;36.002;2023-04-24T22:17:39;98798.97;;;12.18;44.00
75424;BME280;64005;55.160;36.002;2023-04-24T22:20:08;98798.31;;;12.09;44.03
75424;BME280;64005;55.160;36.002;2023-04-24T22:22:36;98804.00;;;12.00;44.51
75424;BME280;64005;55.160;36.002;2023-04-24T22:25:04;98794.03;;;11.87;44.14
75424;BME280;64005;55.160;36.002;2023-04-24T22:27:32;98799.28;;;11.76;44.80
75424;BME280;64005;55.160;36.002;2023-04-24T22:30:00;98791.81;;;11.68;45.47
75424;BME280;64005;55.160;36.002;2023-04-24T22:32:32;98795.41;;;11.57;45.29
75424;BME280;64005;55.160;36.002;2023-04-24T22:35:01;98795.03;;;11.46;45.51
75424;BME280;64005;55.160;36.002;2023-04-24T22:37:31;98799.09;;;11.36;45.96
75424;BME280;64005;55.160;36.002;2023-04-24T22:39:58;98803.63;;;11.29;46.20
75424;BME280;64005;55.160;36.002;2023-04-24T22:42:26;98807.41;;;11.24;46.15
75424;BME280;64005;55.160;36.002;2023-04-24T22:44:54;98683.06;;;10.47;46.14
75424;BME280;64005;55.160;36.002;2023-04-24T22:47:21;98804.63;;;11.24;46.58
75424;BME280;64005;55.160;36.002;2023-04-24T22:49:49;98795.34;;;11.20;46.29
75424;BME280;64005;55.160;36.002;2023-04-24T22:52:20;98799.53;;;11.14;46.83
75424;BME280;64005;55.160;36.002;2023-04-24T22:54:47;98797.63;;;11.06;46.66
75424;BME280;64005;55.160;36.002;2023-04-24T22:57:14;98793.94;;;11.02;47.09
75424;BME280;64005;55.160;36.002;2023-04-24T22:59:42;98781.59;;;10.91;47.74
75424;BME280;64005;55.160;36.002;2023-04-24T23:02:09;98789.22;;;10.82;47.56
75424;BME280;64005;55.160;36.002;2023-04-24T23:04:37;98787.22;;;10.70;48.12